Time;durP1;ratioP1;P1;durP2;ratioP2;P2;SDS_P1;SDS_P2;PMS_P1;PMS_P2;Temp;Humidity;BMP_temperature;BMP_pressure;BME280_temperature;BME280_humidity;BME280_pressure;Samples;Min_cycle;Max_cycle;Signal;HPM_P1;HPM_P2
2022/10/24 00:00:48;;;;;;;41.07;24.73;;;10.10;99.90;;;;;;10055996;29;20253;-82
2022/10/24 00:05:51;;;;;;;36.17;24.97;;;10.10;99.90;;;;;;10055828;29;20237;-82
2022/10/24 00:10:53;;;;;;;42.57;24.83;;;10.00;99.90;;;;;;10039520;29;20237;-82
2022/10/24 00:15:56;;;;;;;36.67;24.37;;;10.20;99.90;;;;;;10055322;29;20233;-82
2022/10/24 00:20:58;;;;;;;40.63;26.33;;;10.40;99.90;;;;;;10054915;29;20257;-82
2022/10/24 00:26:02;;;;;;;36.70;23.80;;;10.60;99.90;;;;;;10055379;29;20880;-82
2022/10/24 00:31:06;;;;;;;38.90;25.07;;;10.70;99.90;;;;;;10055298;29;20313;-82
2022/10/24 00:36:14;;;;;;;37.50;25.57;;;10.80;99.90;;;;;;10053417;29;20698;-82
2022/10/24 00:41:21;;;;;;;34.70;23.73;;;10.80;99.90;;;;;;10037788;29;20643;-82
2022/10/24 00:46:23;;;;;;;34.37;23.13;;;10.90;99.90;;;;;;10054313;29;20289;-82
2022/10/24 00:51:31;;;;;;;37.43;24.90;;;11.00;99.90;;;;;;10054132;29;20595;-81
2022/10/24 00:56:38;;;;;;;34.23;23.17;;;11.00;99.90;;;;;;10020181;29;20814;-82
2022/10/24 01:01:42;;;;;;;30.13;21.50;;;11.00;99.90;;;;;;10037071;29;20259;-82
2022/10/24 01:07:09;;;;;;;38.97;22.77;;;11.10;99.90;;;;;;10036259;29;20942;-82
2022/10/24 01:12:32;;;;;;;36.10;21.83;;;11.10;99.90;;;;;;10050556;29;20237;-82
2022/10/24 01:18:14;;;;;;;30.30;20.87;;;11.10;99.90;;;;;;10051445;29;20392;-82
2022/10/24 01:23:38;;;;;;;40.37;26.17;;;11.20;99.90;;;;;;10034773;29;20237;-82
2022/10/24 01:29:37;;;;;;;37.30;22.47;;;11.20;99.90;;;;;;10052530;29;20290;-82
2022/10/24 01:35:01;;;;;;;33.67;21.93;;;11.40;99.90;;;;;;9867184;30;20310;-82
2022/10/24 01:40:15;;;;;;;38.67;22.17;;;11.20;99.90;;;;;;9855953;30;20316;-82
2022/10/24 01:45:24;;;;;;;28.20;20.40;;;11.20;99.90;;;;;;9857683;29;20651;-82
2022/10/24 01:50:28;;;;;;;33.47;22.10;;;11.60;99.90;;;;;;9859174;30;20307;-82
2022/10/24 01:55:32;;;;;;;32.03;21.67;;;11.40;99.90;;;;;;9857546;30;20882;-82
2022/10/24 02:00:34;;;;;;;33.53;20.87;;;11.30;99.90;;;;;;9857240;30;20676;-82
2022/10/24 02:05:50;;;;;;;37.43;21.80;;;11.50;99.90;;;;;;9977746;29;20253;-82
2022/10/24 02:10:59;;;;;;;34.83;21.03;;;11.30;99.90;;;;;;10033865;29;20293;-83
2022/10/24 02:16:04;;;;;;;33.97;21.13;;;11.30;99.90;;;;;;10046779;29;20233;-82
2022/10/24 02:21:16;;;;;;;34.30;19.80;;;11.30;99.90;;;;;;10047456;29;20257;-82
2022/10/24 02:26:33;;;;;;;26.07;19.40;;;11.30;99.90;;;;;;10049643;29;20233;-82
2022/10/24 02:31:42;;;;;;;30.30;19.63;;;11.30;99.90;;;;;;10004708;29;20245;-82
2022/10/24 02:36:47;;;;;;;28.93;18.60;;;11.30;99.90;;;;;;10033174;29;20304;-82
2022/10/24 02:41:53;;;;;;;26.83;18.63;;;11.30;99.90;;;;;;10049213;29;20230;-82
2022/10/24 02:46:59;;;;;;;28.93;18.60;;;11.30;99.90;;;;;;10049427;29;20231;-83
2022/10/24 02:52:03;;;;;;;22.60;17.33;;;11.30;99.90;;;;;;10048700;29;20234;-82
2022/10/24 02:57:05;;;;;;;25.97;16.37;;;11.30;99.90;;;;;;10048053;29;20277;-82
2022/10/24 03:02:08;;;;;;;31.40;19.07;;;11.30;99.90;;;;;;10049320;29;20226;-82
2022/10/24 03:07:11;;;;;;;29.40;18.97;;;11.30;99.90;;;;;;10050609;29;20237;-82
2022/10/24 03:12:15;;;;;;;29.73;19.00;;;11.30;99.90;;;;;;10052999;29;20250;-82
2022/10/24 03:17:18;;;;;;;25.47;14.90;;;12.80;99.90;;;;;;10052039;29;20708;-82
2022/10/24 03:22:21;;;;;;;21.83;15.20;;;12.30;99.90;;;;;;10037976;29;20772;-82
2022/10/24 03:27:23;;;;;;;20.73;15.33;;;11.50;99.90;;;;;;10038688;29;20298;-83
2022/10/24 03:32:26;;;;;;;24.43;16.30;;;11.40;99.90;;;;;;10037476;29;20880;-83
2022/10/24 03:37:28;;;;;;;25.00;16.17;;;11.40;99.90;;;;;;10051874;29;20250;-82
2022/10/24 03:42:31;;;;;;;27.73;16.43;;;11.30;99.90;;;;;;10037515;29;20235;-82
2022/10/24 03:47:33;;;;;;;24.60;14.80;;;11.30;99.90;;;;;;10049884;29;20272;-83
2022/10/24 03:52:36;;;;;;;25.30;16.50;;;11.30;99.90;;;;;;10051757;29;20249;-82
2022/10/24 03:57:39;;;;;;;27.17;17.07;;;11.30;99.90;;;;;;10056520;29;20265;-82
2022/10/24 04:02:41;;;;;;;23.23;15.87;;;11.30;99.90;;;;;;10054468;29;20237;-82
2022/10/24 04:07:45;;;;;;;27.57;17.13;;;11.30;99.90;;;;;;10034201;29;20272;-82
2022/10/24 04:12:48;;;;;;;19.77;14.93;;;11.30;99.90;;;;;;10033871;29;20715;-82
2022/10/24 04:17:51;;;;;;;27.23;16.40;;;11.30;99.90;;;;;;10034311;29;20243;-82
2022/10/24 04:22:53;;;;;;;24.73;16.57;;;11.30;99.90;;;;;;10035138;29;20232;-83
2022/10/24 04:27:56;;;;;;;23.27;16.70;;;11.20;99.90;;;;;;10050712;29;20290;-83
2022/10/24 04:32:58;;;;;;;24.60;16.93;;;11.20;99.90;;;;;;10033541;29;20233;-81
2022/10/24 04:38:01;;;;;;;22.87;15.37;;;11.10;99.90;;;;;;10046573;29;20245;-81
2022/10/24 04:43:03;;;;;;;28.67;17.57;;;11.20;99.90;;;;;;10034875;29;20233;-81
2022/10/24 04:48:06;;;;;;;21.23;16.73;;;11.20;99.90;;;;;;10035233;29;20242;-81
2022/10/24 04:53:08;;;;;;;23.47;15.10;;;11.20;99.90;;;;;;10052922;29;20285;-82
2022/10/24 04:58:11;;;;;;;23.20;15.07;;;12.30;99.90;;;;;;10036446;29;20792;-82
2022/10/24 05:03:13;;;;;;;24.43;16.70;;;11.50;99.90;;;;;;10051071;29;20684;-82
2022/10/24 05:08:17;;;;;;;24.97;17.50;;;11.30;99.90;;;;;;10050689;29;20645;-82
2022/10/24 05:13:19;;;;;;;26.73;18.37;;;11.20;99.90;;;;;;10049287;29;20233;-82
2022/10/24 05:18:21;;;;;;;27.27;18.17;;;10.90;99.90;;;;;;10036473;29;20261;-82
2022/10/24 05:23:25;;;;;;;26.90;17.77;;;10.90;99.90;;;;;;10052898;29;20226;-81
2022/10/24 05:28:27;;;;;;;23.77;16.40;;;10.60;99.90;;;;;;10050108;29;20702;-81
2022/10/24 05:33:30;;;;;;;36.50;20.70;;;10.40;99.90;;;;;;10052090;29;20237;-85
2022/10/24 05:38:32;;;;;;;36.23;21.90;;;10.30;99.90;;;;;;10051770;29;20668;-83
2022/10/24 05:43:35;;;;;;;39.33;22.43;;;10.30;99.90;;;;;;10046052;29;20238;-82
2022/10/24 05:48:37;;;;;;;35.17;22.83;;;10.20;99.90;;;;;;10046620;29;20241;-82
2022/10/24 05:53:40;;;;;;;33.53;19.77;;;10.30;99.90;;;;;;10050282;29;20295;-83
2022/10/24 05:58:42;;;;;;;30.50;18.50;;;10.10;99.90;;;;;;10051600;29;20746;-83
2022/10/24 06:03:45;;;;;;;27.37;18.60;;;9.90;99.90;;;;;;10034094;29;20241;-82
2022/10/24 06:08:48;;;;;;;30.43;17.50;;;10.20;99.90;;;;;;10034498;29;20233;-82
2022/10/24 06:13:50;;;;;;;25.93;16.30;;;10.30;99.90;;;;;;10051945;29;20954;-82
2022/10/24 06:18:53;;;;;;;25.87;17.40;;;10.10;99.90;;;;;;10050049;29;21013;-82
2022/10/24 06:23:55;;;;;;;23.23;16.20;;;10.30;99.90;;;;;;10051622;29;20653;-82
2022/10/24 06:28:58;;;;;;;26.37;17.30;;;10.20;99.90;;;;;;10051435;29;20237;-82
2022/10/24 06:34:01;;;;;;;26.63;16.23;;;10.40;99.90;;;;;;10039007;29;20656;-82
2022/10/24 06:39:03;;;;;;;39.33;20.73;;;10.50;99.90;;;;;;10042115;29;20241;-82
2022/10/24 06:44:06;;;;;;;26.60;17.33;;;10.60;99.90;;;;;;10036630;29;20241;-82
2022/10/24 06:49:13;;;;;;;27.77;17.30;;;11.50;99.90;;;;;;10055388;29;20241;-82
2022/10/24 06:54:15;;;;;;;32.33;17.67;;;11.10;99.90;;;;;;10054592;29;20277;-83
2022/10/24 06:59:18;;;;;;;30.10;16.67;;;10.90;99.90;;;;;;10052165;29;20270;-84
2022/10/24 07:04:20;;;;;;;31.23;17.17;;;11.00;99.90;;;;;;10037154;29;20780;-84
2022/10/24 07:09:23;;;;;;;24.30;15.80;;;11.10;99.90;;;;;;10052714;29;21001;-83
2022/10/24 07:14:25;;;;;;;23.77;15.60;;;11.20;99.90;;;;;;10021576;29;20655;-84
2022/10/24 07:19:28;;;;;;;21.70;15.10;;;11.30;99.90;;;;;;10037229;29;20319;-83
2022/10/24 07:24:34;;;;;;;26.43;15.60;;;11.40;99.90;;;;;;10052540;29;20241;-84
2022/10/24 07:29:38;;;;;;;27.87;16.97;;;11.50;99.90;;;;;;10037224;29;20239;-83
2022/10/24 07:34:41;;;;;;;28.80;16.20;;;11.60;99.90;;;;;;10052827;29;20234;-84
2022/10/24 07:39:52;;;;;;;28.17;16.93;;;11.70;99.90;;;;;;10035494;29;20248;-84
2022/10/24 07:44:55;;;;;;;26.97;16.47;;;11.80;99.90;;;;;;10050152;29;20283;-83
2022/10/24 07:50:03;;;;;;;30.93;17.47;;;12.00;99.90;;;;;;10034006;29;20290;-83
2022/10/24 07:55:09;;;;;;;29.80;18.57;;;12.10;99.90;;;;;;10014536;29;1084486;-83
2022/10/24 08:00:12;;;;;;;33.47;20.97;;;12.20;99.90;;;;;;10052074;29;20250;-83
2022/10/24 08:05:15;;;;;;;36.93;19.63;;;12.30;99.90;;;;;;10052786;29;20234;-83
2022/10/24 08:10:23;;;;;;;30.90;20.53;;;12.30;99.90;;;;;;10051080;29;20245;-83
2022/10/24 08:15:27;;;;;;;28.07;19.47;;;12.40;99.90;;;;;;10035595;29;20686;-83
2022/10/24 08:20:29;;;;;;;27.63;17.50;;;12.50;99.90;;;;;;10035250;29;20272;-83
2022/10/24 08:25:32;;;;;;;26.80;14.97;;;12.70;99.90;;;;;;10035766;29;20241;-83
2022/10/24 08:30:34;;;;;;;22.87;16.27;;;12.90;99.90;;;;;;10052304;29;20272;-83
2022/10/24 08:35:37;;;;;;;27.33;19.07;;;13.30;99.90;;;;;;10050320;29;20313;-82
2022/10/24 08:40:39;;;;;;;25.43;16.10;;;13.60;99.90;;;;;;10052164;29;20308;-83
2022/10/24 08:45:45;;;;;;;21.03;13.47;;;14.20;99.90;;;;;;10051963;29;20293;-83
2022/10/24 08:50:52;;;;;;;18.00;12.20;;;14.10;99.90;;;;;;10037458;29;20294;-81
2022/10/24 08:55:57;;;;;;;18.43;12.73;;;14.00;99.90;;;;;;10052889;29;20265;-80
2022/10/24 09:01:03;;;;;;;21.67;12.47;;;14.20;99.90;;;;;;10036549;29;20876;-78
2022/10/24 09:06:16;;;;;;;17.33;11.27;;;15.10;99.90;;;;;;10036772;29;20329;-78
2022/10/24 09:11:44;;;;;;;17.63;10.37;;;15.80;99.90;;;;;;10053478;29;20245;-78
2022/10/24 09:16:56;;;;;;;27.23;11.30;;;15.50;99.90;;;;;;10051701;29;20309;-80
2022/10/24 09:22:00;;;;;;;13.57;11.43;;;15.40;99.90;;;;;;9998972;29;20322;-80
2022/10/24 09:27:08;;;;;;;17.53;11.93;;;15.00;99.90;;;;;;10029448;29;20285;-80
2022/10/24 09:32:21;;;;;;;19.60;11.80;;;15.00;99.90;;;;;;10048309;29;20245;-80
2022/10/24 09:37:40;;;;;;;17.97;13.17;;;15.00;99.90;;;;;;10035005;29;20241;-80
2022/10/24 09:42:49;;;;;;;19.47;13.67;;;15.10;99.90;;;;;;10020835;29;20265;-80
2022/10/24 09:48:01;;;;;;;18.13;11.67;;;15.30;99.90;;;;;;10051518;29;20234;-79
2022/10/24 09:53:04;;;;;;;16.73;11.60;;;15.40;99.90;;;;;;10032539;29;20241;-79
2022/10/24 09:58:17;;;;;;;17.03;11.83;;;15.50;99.90;;;;;;10037445;29;20316;-79
2022/10/24 10:03:21;;;;;;;16.30;12.23;;;15.40;99.90;;;;;;10050780;29;20290;-80
2022/10/24 10:08:34;;;;;;;17.77;11.57;;;15.60;99.90;;;;;;10038761;29;20241;-80
2022/10/24 10:13:48;;;;;;;12.67;9.47;;;16.40;99.90;;;;;;10056879;29;20308;-79
2022/10/24 10:19:04;;;;;;;16.40;10.33;;;16.10;99.90;;;;;;10058137;29;20333;-80
2022/10/24 10:24:36;;;;;;;14.17;9.93;;;16.40;99.90;;;;;;10042215;29;20245;-80
2022/10/24 10:29:38;;;;;;;13.27;8.73;;;16.60;99.90;;;;;;10039573;29;20250;-81
2022/10/24 10:35:10;;;;;;;13.47;10.60;;;16.80;99.90;;;;;;10058308;29;20301;-81
2022/10/24 10:40:34;;;;;;;14.67;11.20;;;17.00;99.90;;;;;;10056026;29;20261;-80
2022/10/24 10:45:41;;;;;;;12.73;10.13;;;17.40;99.90;;;;;;10053354;29;20751;-80
2022/10/24 10:50:54;;;;;;;11.80;8.30;;;17.90;99.90;;;;;;10056708;29;20771;-79
2022/10/24 10:56:16;;;;;;;13.00;7.37;;;18.10;99.90;;;;;;10036437;29;20317;-80
2022/10/24 11:01:21;;;;;;;9.90;7.63;;;17.90;99.90;;;;;;10057635;29;20261;-80
2022/10/24 11:06:43;;;;;;;17.23;8.30;;;18.00;99.90;;;;;;10035290;29;20233;-84
2022/10/24 11:11:53;;;;;;;13.50;9.90;;;;;;;;;;10041221;29;20214;-81
2022/10/24 11:17:01;;;;;;;13.93;8.43;;;18.30;99.90;;;;;;10038521;29;20234;-82
2022/10/24 11:22:08;;;;;;;14.50;9.30;;;18.50;99.90;;;;;;10056082;29;20309;-81
2022/10/24 11:27:23;;;;;;;14.67;10.23;;;18.20;99.90;;;;;;10056444;29;21019;-81
2022/10/24 11:32:43;;;;;;;11.57;7.03;;;18.40;99.90;;;;;;10040477;29;20309;-82
2022/10/24 11:37:51;;;;;;;12.50;10.00;;;18.20;99.90;;;;;;10053833;29;20316;-82
2022/10/24 11:43:26;;;;;;;14.17;9.17;;;18.50;99.90;;;;;;10039287;29;20254;-82
2022/10/24 11:48:37;;;;;;;13.13;8.97;;;18.30;99.90;;;;;;10039705;29;20292;-82
2022/10/24 11:53:59;;;;;;;13.40;7.80;;;18.40;99.90;;;;;;10052721;29;20290;-81
2022/10/24 11:59:05;;;;;;;16.60;7.57;;;18.70;99.90;;;;;;10048307;29;20241;-80
2022/10/24 12:04:26;;;;;;;9.93;8.87;;;18.90;99.90;;;;;;10053611;29;20234;-81
2022/10/24 12:10:16;;;;;;;16.83;9.50;;;19.10;99.90;;;;;;10021948;29;20245;-81
2022/10/24 12:15:36;;;;;;;12.47;9.23;;;19.00;99.90;;;;;;10034539;29;20310;-81
2022/10/24 12:20:42;;;;;;;11.57;7.20;;;19.00;99.90;;;;;;10049135;29;20254;-82
2022/10/24 12:25:47;;;;;;;12.53;8.80;;;19.10;99.90;;;;;;10035763;29;20257;-82
2022/10/24 12:31:15;;;;;;;11.77;6.53;;;19.10;99.90;;;;;;10035280;29;20240;-81
2022/10/24 12:36:55;;;;;;;13.37;9.40;;;19.10;99.90;;;;;;10052311;29;20925;-82
2022/10/24 12:41:58;;;;;;;12.93;6.43;;;19.10;99.90;;;;;;10054840;29;20376;-81
2022/10/24 12:47:25;;;;;;;12.53;9.03;;;18.90;99.90;;;;;;10053435;29;20222;-82
2022/10/24 12:52:31;;;;;;;12.00;7.67;;;18.80;99.90;;;;;;10032244;29;20244;-82
2022/10/24 12:57:43;;;;;;;12.30;6.70;;;19.00;99.90;;;;;;10051325;29;20283;-81
2022/10/24 13:02:49;;;;;;;14.93;7.40;;;18.90;99.90;;;;;;10033871;29;20674;-82
2022/10/24 13:08:13;;;;;;;10.50;5.73;;;18.90;99.90;;;;;;10050255;29;20247;-81
2022/10/24 13:13:51;;;;;;;12.00;7.00;;;19.10;99.90;;;;;;10050924;29;20229;-81
2022/10/24 13:19:05;;;;;;;12.37;7.90;;;19.30;99.90;;;;;;10036640;29;20240;-83
2022/10/24 13:24:39;;;;;;;14.90;6.57;;;19.20;99.90;;;;;;10026053;29;20316;-82
2022/10/24 13:29:42;;;;;;;11.80;5.93;;;18.90;99.90;;;;;;10048395;29;20285;-82
2022/10/24 13:34:51;;;;;;;18.27;6.27;;;18.70;99.90;;;;;;10051346;29;20233;-82
2022/10/24 13:39:55;;;;;;;10.43;6.53;;;18.50;99.90;;;;;;10033479;29;20255;-82
2022/10/24 13:45:02;;;;;;;11.77;6.87;;;18.30;99.90;;;;;;10035506;29;20718;-81
2022/10/24 13:50:10;;;;;;;11.03;5.80;;;18.10;99.90;;;;;;10054221;29;20230;-82
2022/10/24 13:55:23;;;;;;;12.83;6.80;;;18.00;99.90;;;;;;10036462;29;20671;-81
2022/10/24 14:00:31;;;;;;;14.73;6.03;;;17.90;99.90;;;;;;10037705;29;20258;-81
2022/10/24 14:05:43;;;;;;;15.77;6.77;;;17.70;99.90;;;;;;10035046;29;20210;-81
2022/10/24 14:10:45;;;;;;;15.57;7.30;;;17.70;99.90;;;;;;10052444;29;20237;-81
2022/10/24 14:15:52;;;;;;;17.13;8.13;;;17.70;99.90;;;;;;10032214;29;20267;-80
2022/10/24 14:20:59;;;;;;;14.07;7.70;;;17.40;99.90;;;;;;10052586;29;20652;-80
2022/10/24 14:26:16;;;;;;;16.93;10.37;;;17.20;99.90;;;;;;10020867;29;20316;-80
2022/10/24 14:31:22;;;;;;;12.93;8.33;;;17.10;99.90;;;;;;10051585;29;20245;-81
2022/10/24 14:36:29;;;;;;;14.17;8.93;;;17.00;99.90;;;;;;10022815;29;20235;-81
2022/10/24 14:41:39;;;;;;;20.20;8.47;;;17.00;99.90;;;;;;10054643;29;20262;-81
2022/10/24 14:46:44;;;;;;;13.83;9.03;;;16.90;99.90;;;;;;10054366;29;20260;-82
2022/10/24 14:51:49;;;;;;;18.23;9.27;;;16.90;99.90;;;;;;10056026;29;20265;-82
2022/10/24 14:56:53;;;;;;;11.50;7.57;;;16.70;99.90;;;;;;10056003;29;20718;-81
2022/10/24 15:02:00;;;;;;;17.23;8.77;;;16.70;99.90;;;;;;10058574;29;20301;-80
2022/10/24 15:07:39;;;;;;;15.87;8.77;;;16.60;99.90;;;;;;10040534;29;20237;-80
2022/10/24 15:13:11;;;;;;;18.67;10.87;;;16.60;99.90;;;;;;10040737;29;20317;-80
2022/10/24 15:18:21;;;;;;;15.23;9.83;;;16.50;99.90;;;;;;10025903;29;20293;-81
2022/10/24 15:23:27;;;;;;;16.47;10.43;;;16.40;99.90;;;;;;10058902;29;20257;-80
2022/10/24 15:28:42;;;;;;;20.03;12.53;;;16.30;99.90;;;;;;10057340;29;20210;-81
2022/10/24 15:33:45;;;;;;;24.57;12.43;;;16.30;99.90;;;;;;10042818;29;20205;-82
2022/10/24 15:38:53;;;;;;;21.77;11.53;;;16.30;99.90;;;;;;10061259;29;20265;-82
2022/10/24 15:43:56;;;;;;;25.87;12.17;;;16.10;99.90;;;;;;10043916;29;20646;-84
2022/10/24 15:48:59;;;;;;;19.43;11.27;;;16.10;99.90;;;;;;10062854;29;20215;-86
2022/10/24 15:54:01;;;;;;;19.73;12.03;;;16.00;99.90;;;;;;10012109;29;20238;-83
2022/10/24 15:59:03;;;;;;;20.80;10.13;;;15.90;99.90;;;;;;10060919;29;20209;-85
2022/10/24 16:04:08;;;;;;;20.13;11.70;;;15.70;99.90;;;;;;10055351;29;20672;-84
2022/10/24 16:09:19;;;;;;;24.90;11.13;;;15.60;99.90;;;;;;10038053;29;20626;-82
2022/10/24 16:14:24;;;;;;;24.17;13.53;;;15.50;99.90;;;;;;10052529;29;20274;-81
2022/10/24 16:19:27;;;;;;;18.60;13.17;;;15.40;99.90;;;;;;10051285;29;20959;-82
2022/10/24 16:24:30;;;;;;;26.73;15.87;;;15.40;99.90;;;;;;10053003;29;20722;-82
2022/10/24 16:29:32;;;;;;;23.90;14.37;;;15.30;99.90;;;;;;10047804;29;20238;-82
2022/10/24 16:34:34;;;;;;;32.23;17.20;;;15.50;99.90;;;;;;10036539;29;20251;-82
2022/10/24 16:39:37;;;;;;;34.43;17.00;;;15.20;99.90;;;;;;10036398;29;20245;-82
2022/10/24 16:44:40;;;;;;;29.13;18.27;;;15.20;99.90;;;;;;10052190;29;20650;-82
2022/10/24 16:49:46;;;;;;;27.53;16.50;;;15.10;99.90;;;;;;10051067;29;20229;-83
2022/10/24 16:54:48;;;;;;;27.93;17.50;;;15.10;99.90;;;;;;10054542;29;20273;-83
2022/10/24 16:59:51;;;;;;;27.97;16.07;;;15.10;99.90;;;;;;10054222;29;20229;-81
2022/10/24 17:04:53;;;;;;;25.40;15.77;;;15.10;99.90;;;;;;10037784;29;20772;-83
2022/10/24 17:09:56;;;;;;;28.63;17.20;;;15.10;99.90;;;;;;10036855;29;20297;-82
2022/10/24 17:14:59;;;;;;;31.23;16.37;;;15.30;99.90;;;;;;10035776;29;21011;-83
2022/10/24 17:20:02;;;;;;;24.17;14.63;;;15.40;99.90;;;;;;10034588;29;20229;-83
2022/10/24 17:25:09;;;;;;;21.73;11.67;;;15.40;99.90;;;;;;10031676;29;20253;-83
2022/10/24 17:30:16;;;;;;;21.70;12.53;;;15.50;99.90;;;;;;10032997;29;20293;-83
2022/10/24 17:35:21;;;;;;;26.90;12.93;;;15.60;99.90;;;;;;10049353;29;20377;-83
2022/10/24 17:40:28;;;;;;;26.40;12.67;;;15.60;99.90;;;;;;10050764;29;20652;-82
2022/10/24 17:45:31;;;;;;;20.20;12.03;;;15.60;99.90;;;;;;10043862;29;20294;-83
2022/10/24 17:50:34;;;;;;;15.77;10.17;;;15.60;99.90;;;;;;10036901;29;20297;-83
2022/10/24 17:55:36;;;;;;;17.83;10.80;;;15.60;99.90;;;;;;10035444;29;20258;-83
2022/10/24 18:00:49;;;;;;;15.93;11.67;;;15.50;99.90;;;;;;10036157;29;20650;-82
2022/10/24 18:05:52;;;;;;;21.93;11.63;;;15.60;99.90;;;;;;10047811;29;20238;-83
2022/10/24 18:11:00;;;;;;;29.67;12.63;;;15.50;99.90;;;;;;10052750;29;20241;-84
2022/10/24 18:16:11;;;;;;;25.50;11.77;;;15.10;99.90;;;;;;10060446;29;20304;-83
2022/10/24 18:21:17;;;;;;;21.97;10.80;;;14.90;99.90;;;;;;10051834;29;20749;-82
2022/10/24 18:26:26;;;;;;;23.97;11.67;;;14.80;99.90;;;;;;10050481;29;20254;-83
2022/10/24 18:31:30;;;;;;;21.87;12.23;;;14.70;99.90;;;;;;10041761;29;20245;-82
2022/10/24 18:36:33;;;;;;;22.67;11.43;;;14.70;99.90;;;;;;10057922;29;20668;-82
2022/10/24 18:41:54;;;;;;;19.83;13.13;;;14.60;99.90;;;;;;10042424;29;20318;-81
2022/10/24 18:47:00;;;;;;;15.63;10.33;;;14.90;99.90;;;;;;10041935;29;20310;-83
2022/10/24 18:52:09;;;;;;;15.20;10.33;;;14.90;99.90;;;;;;10042113;29;20241;-82
2022/10/24 18:57:25;;;;;;;24.70;13.03;;;14.80;99.90;;;;;;10054037;29;20325;-85
2022/10/24 19:02:43;;;;;;;32.20;18.93;;;14.90;99.90;;;;;;10029675;29;20949;-85
2022/10/24 19:07:47;;;;;;;32.37;16.50;;;14.80;99.90;;;;;;10056354;29;20244;-85
2022/10/24 19:12:51;;;;;;;24.23;11.40;;;14.90;99.90;;;;;;10025347;29;20316;-82
2022/10/24 19:17:55;;;;;;;13.57;8.10;;;15.00;99.90;;;;;;10056497;29;20245;-87
2022/10/24 19:23:03;;;;;;;15.23;7.87;;;15.00;99.90;;;;;;10054190;29;20257;-85
2022/10/24 19:28:09;;;;;;;13.37;8.67;;;14.90;99.90;;;;;;10066869;29;20305;-85
2022/10/24 19:33:13;;;;;;;15.80;7.97;;;14.80;99.90;;;;;;10039759;29;20245;-84
2022/10/24 19:38:17;;;;;;;22.87;8.60;;;14.90;99.90;;;;;;10050730;29;20703;-84
2022/10/24 19:43:21;;;;;;;21.40;13.10;;;15.10;99.90;;;;;;10053116;29;20716;-83
2022/10/24 19:48:24;;;;;;;18.77;10.77;;;15.20;99.90;;;;;;10051504;29;20241;-83
2022/10/24 19:53:28;;;;;;;17.10;9.13;;;15.00;99.90;;;;;;10052951;29;20672;-83
2022/10/24 19:58:31;;;;;;;17.83;9.87;;;14.80;99.90;;;;;;10039110;29;20882;-83
2022/10/24 20:03:38;;;;;;;16.93;8.77;;;14.70;99.90;;;;;;10038033;29;20328;-83
2022/10/24 20:08:40;;;;;;;16.83;8.30;;;14.60;99.90;;;;;;10038409;29;20274;-84
2022/10/24 20:13:43;;;;;;;14.93;8.53;;;14.30;99.90;;;;;;10024394;29;20298;-86
2022/10/24 20:18:46;;;;;;;15.13;8.70;;;14.20;99.90;;;;;;10034209;29;20703;-84
2022/10/24 20:23:48;;;;;;;13.40;9.47;;;14.00;99.90;;;;;;10036946;29;20257;-85
2022/10/24 20:28:53;;;;;;;19.47;10.20;;;13.90;99.90;;;;;;10055246;29;20241;-85
2022/10/24 20:34:01;;;;;;;18.30;10.83;;;13.90;99.90;;;;;;10054374;29;20270;-83
2022/10/24 20:39:10;;;;;;;26.37;9.33;;;14.00;99.90;;;;;;10052246;29;20642;-83
2022/10/24 20:44:14;;;;;;;16.03;10.27;;;14.30;99.90;;;;;;10043372;29;20261;-83
2022/10/24 20:49:16;;;;;;;17.43;10.10;;;14.30;99.90;;;;;;10037887;29;20643;-83
2022/10/24 20:54:19;;;;;;;18.87;9.40;;;14.30;99.90;;;;;;10052548;29;20680;-83
2022/10/24 20:59:22;;;;;;;11.70;6.63;;;14.70;99.90;;;;;;10053312;29;20234;-83
2022/10/24 21:04:24;;;;;;;14.10;8.40;;;14.80;99.90;;;;;;10054019;29;20800;-83
2022/10/24 21:09:26;;;;;;;10.80;8.00;;;15.00;99.90;;;;;;10035245;29;20281;-83
2022/10/24 21:14:29;;;;;;;16.80;9.00;;;15.60;99.90;;;;;;10034798;29;20245;-83
2022/10/24 21:19:31;;;;;;;16.63;8.70;;;14.60;99.90;;;;;;10034389;29;20252;-83
2022/10/24 21:24:34;;;;;;;15.43;7.37;;;14.40;99.90;;;;;;10053018;29;20313;-83
2022/10/24 21:29:36;;;;;;;12.00;7.00;;;14.30;99.90;;;;;;10051654;29;20238;-83
2022/10/24 21:34:39;;;;;;;9.70;6.97;;;14.10;99.90;;;;;;10053311;29;20289;-83
2022/10/24 21:39:41;;;;;;;13.30;7.80;;;14.10;99.90;;;;;;10036611;29;20298;-83
2022/10/24 21:44:44;;;;;;;10.87;6.53;;;13.90;99.90;;;;;;10051877;29;20261;-83
2022/10/24 21:49:46;;;;;;;9.90;7.03;;;13.80;99.90;;;;;;10052971;29;20245;-83
2022/10/24 21:54:49;;;;;;;12.00;6.70;;;13.70;99.90;;;;;;10052141;29;20273;-84
2022/10/24 21:59:51;;;;;;;11.50;7.10;;;13.60;99.90;;;;;;10035699;29;20694;-84
2022/10/24 22:04:53;;;;;;;14.00;8.73;;;13.40;99.90;;;;;;10058187;29;20313;-83
2022/10/24 22:09:56;;;;;;;9.93;7.43;;;13.40;99.90;;;;;;10060340;29;20247;-83
2022/10/24 22:14:58;;;;;;;13.77;7.70;;;13.30;99.90;;;;;;10058828;29;20289;-84
2022/10/24 22:20:01;;;;;;;11.93;6.50;;;13.30;99.90;;;;;;10059144;29;20686;-84
2022/10/24 22:25:04;;;;;;;16.20;8.63;;;13.20;99.90;;;;;;10059945;29;20260;-84
2022/10/24 22:30:06;;;;;;;10.17;9.03;;;13.20;99.90;;;;;;10042557;29;20302;-83
2022/10/24 22:35:10;;;;;;;14.17;8.60;;;13.20;99.90;;;;;;10042400;29;20249;-84
2022/10/24 22:40:25;;;;;;;14.10;8.07;;;13.20;99.90;;;;;;10059069;29;20247;-84
2022/10/24 22:45:28;;;;;;;13.63;9.10;;;13.10;99.90;;;;;;10041897;29;20256;-84
2022/10/24 22:50:50;;;;;;;14.33;7.90;;;13.00;99.90;;;;;;10057673;29;20243;-84
2022/10/24 22:55:53;;;;;;;15.43;8.53;;;13.00;99.90;;;;;;10058789;29;20274;-84
2022/10/24 23:01:16;;;;;;;33.20;7.77;;;13.00;99.90;;;;;;10057667;29;20285;-84
2022/10/24 23:06:24;;;;;;;13.87;7.87;;;13.00;99.90;;;;;;10039506;29;20286;-84
2022/10/24 23:11:26;;;;;;;11.83;8.63;;;12.90;99.90;;;;;;10041885;29;20249;-83
2022/10/24 23:16:34;;;;;;;10.03;7.23;;;12.80;99.90;;;;;;10024327;29;20255;-84
2022/10/24 23:21:45;;;;;;;9.10;7.07;;;12.80;99.90;;;;;;10039699;29;20315;-84
2022/10/24 23:26:59;;;;;;;12.33;8.70;;;12.80;99.90;;;;;;10057218;29;20233;-84
2022/10/24 23:32:03;;;;;;;11.53;6.63;;;12.60;99.90;;;;;;10055319;29;20242;-84
2022/10/24 23:37:12;;;;;;;11.40;8.40;;;12.50;99.90;;;;;;10057738;29;20301;-84
2022/10/24 23:42:15;;;;;;;10.97;7.77;;;12.50;99.90;;;;;;10040780;29;20253;-84
2022/10/24 23:47:34;;;;;;;12.93;8.97;;;12.50;99.90;;;;;;10055679;29;20682;-84
2022/10/24 23:53:10;;;;;;;9.33;6.53;;;12.50;99.90;;;;;;10030496;29;20237;-84
2022/10/24 23:58:12;;;;;;;8.77;7.03;;;12.50;99.90;;;;;;10056658;29;20249;-84
